sensor_id;sensor_type;location;lat;lon;timestamp;P1;durP1;ratioP1;P2;durP2;ratioP2
2928;SDS011;1474;51.460;7.150;2023-04-06T00:01:41;7.20;;;5.15;;
2928;SDS011;1474;51.460;7.150;2023-04-06T00:04:06;7.03;;;4.68;;
2928;SDS011;1474;51.460;7.150;2023-04-06T00:06:32;5.20;;;4.63;;
2928;SDS011;1474;51.460;7.150;2023-04-06T00:08:58;9.15;;;4.18;;
2928;SDS011;1474;51.460;7.150;2023-04-06T00:11:24;6.80;;;4.80;;
2928;SDS011;1474;51.460;7.150;2023-04-06T00:13:50;12.32;;;4.68;;
2928;SDS011;1474;51.460;7.150;2023-04-06T00:16:16;9.45;;;5.43;;
2928;SDS011;1474;51.460;7.150;2023-04-06T00:18:42;5.88;;;4.35;;
2928;SDS011;1474;51.460;7.150;2023-04-06T00:21:11;5.90;;;3.45;;
2928;SDS011;1474;51.460;7.150;2023-04-06T00:23:38;8.27;;;5.07;;
2928;SDS011;1474;51.460;7.150;2023-04-06T00:26:04;7.53;;;4.40;;
2928;SDS011;1474;51.460;7.150;2023-04-06T00:28:30;4.13;;;3.60;;
2928;SDS011;1474;51.460;7.150;2023-04-06T00:30:55;5.43;;;4.07;;
2928;SDS011;1474;51.460;7.150;2023-04-06T00:33:21;6.93;;;4.65;;
2928;SDS011;1474;51.460;7.150;2023-04-06T00:35:48;6.65;;;4.47;;
2928;SDS011;1474;51.460;7.150;2023-04-06T00:38:14;5.38;;;4.22;;
2928;SDS011;1474;51.460;7.150;2023-04-06T00:40:40;8.13;;;4.97;;
2928;SDS011;1474;51.460;7.150;2023-04-06T00:43:06;4.95;;;4.38;;
2928;SDS011;1474;51.460;7.150;2023-04-06T00:45:34;8.73;;;4.40;;
2928;SDS011;1474;51.460;7.150;2023-04-06T00:48:00;7.43;;;4.80;;
2928;SDS011;1474;51.460;7.150;2023-04-06T00:50:26;7.43;;;4.40;;
2928;SDS011;1474;51.460;7.150;2023-04-06T00:52:52;7.15;;;4.35;;
2928;SDS011;1474;51.460;7.150;2023-04-06T00:55:19;5.20;;;4.10;;
2928;SDS011;1474;51.460;7.150;2023-04-06T00:57:45;7.15;;;4.35;;
2928;SDS011;1474;51.460;7.150;2023-04-06T01:00:11;7.22;;;4.95;;
2928;SDS011;1474;51.460;7.150;2023-04-06T01:02:37;5.60;;;4.18;;
2928;SDS011;1474;51.460;7.150;2023-04-06T01:05:03;11.40;;;4.65;;
2928;SDS011;1474;51.460;7.150;2023-04-06T01:07:29;5.72;;;5.07;;
2928;SDS011;1474;51.460;7.150;2023-04-06T01:09:55;9.57;;;5.15;;
2928;SDS011;1474;51.460;7.150;2023-04-06T01:12:21;6.90;;;5.05;;
2928;SDS011;1474;51.460;7.150;2023-04-06T01:14:47;9.50;;;4.28;;
2928;SDS011;1474;51.460;7.150;2023-04-06T01:17:13;7.03;;;4.22;;
2928;SDS011;1474;51.460;7.150;2023-04-06T01:19:39;6.47;;;3.25;;
2928;SDS011;1474;51.460;7.150;2023-04-06T01:22:05;7.90;;;4.55;;
2928;SDS011;1474;51.460;7.150;2023-04-06T01:24:32;5.68;;;5.03;;
2928;SDS011;1474;51.460;7.150;2023-04-06T01:26:58;3.83;;;3.45;;
2928;SDS011;1474;51.460;7.150;2023-04-06T01:29:25;5.28;;;4.20;;
2928;SDS011;1474;51.460;7.150;2023-04-06T01:31:51;6.38;;;4.25;;
2928;SDS011;1474;51.460;7.150;2023-04-06T01:34:17;5.43;;;3.55;;
2928;SDS011;1474;51.460;7.150;2023-04-06T01:36:43;6.55;;;4.32;;
2928;SDS011;1474;51.460;7.150;2023-04-06T01:39:09;8.32;;;3.83;;
2928;SDS011;1474;51.460;7.150;2023-04-06T01:41:35;5.35;;;4.05;;
2928;SDS011;1474;51.460;7.150;2023-04-06T01:44:01;6.63;;;4.57;;
2928;SDS011;1474;51.460;7.150;2023-04-06T01:46:27;5.93;;;4.43;;
2928;SDS011;1474;51.460;7.150;2023-04-06T01:48:53;7.63;;;4.72;;
2928;SDS011;1474;51.460;7.150;2023-04-06T01:51:19;6.82;;;4.65;;
2928;SDS011;1474;51.460;7.150;2023-04-06T01:53:45;7.15;;;4.20;;
2928;SDS011;1474;51.460;7.150;2023-04-06T01:56:11;7.35;;;4.53;;
2928;SDS011;1474;51.460;7.150;2023-04-06T01:58:36;9.10;;;4.55;;
2928;SDS011;1474;51.460;7.150;2023-04-06T02:01:02;8.10;;;5.13;;
2928;SDS011;1474;51.460;7.150;2023-04-06T02:03:28;7.70;;;4.85;;
2928;SDS011;1474;51.460;7.150;2023-04-06T02:05:54;8.32;;;3.92;;
2928;SDS011;1474;51.460;7.150;2023-04-06T02:08:20;4.35;;;3.80;;
2928;SDS011;1474;51.460;7.150;2023-04-06T02:10:45;5.80;;;3.55;;
2928;SDS011;1474;51.460;7.150;2023-04-06T02:13:11;10.52;;;5.03;;
2928;SDS011;1474;51.460;7.150;2023-04-06T02:15:37;7.78;;;4.07;;
2928;SDS011;1474;51.460;7.150;2023-04-06T02:18:02;7.13;;;4.22;;
2928;SDS011;1474;51.460;7.150;2023-04-06T02:20:28;6.10;;;4.68;;
2928;SDS011;1474;51.460;7.150;2023-04-06T02:22:56;6.40;;;4.28;;
2928;SDS011;1474;51.460;7.150;2023-04-06T02:25:24;5.60;;;4.30;;
2928;SDS011;1474;51.460;7.150;2023-04-06T02:27:50;8.02;;;4.55;;
2928;SDS011;1474;51.460;7.150;2023-04-06T02:30:15;8.35;;;4.55;;
2928;SDS011;1474;51.460;7.150;2023-04-06T02:32:41;5.60;;;3.72;;
2928;SDS011;1474;51.460;7.150;2023-04-06T02:35:07;9.43;;;5.15;;
2928;SDS011;1474;51.460;7.150;2023-04-06T02:37:33;6.43;;;4.03;;
2928;SDS011;1474;51.460;7.150;2023-04-06T02:39:58;5.15;;;3.90;;
2928;SDS011;1474;51.460;7.150;2023-04-06T02:42:24;6.68;;;4.80;;
2928;SDS011;1474;51.460;7.150;2023-04-06T02:44:50;8.32;;;4.22;;
2928;SDS011;1474;51.460;7.150;2023-04-06T02:47:16;4.93;;;4.35;;
2928;SDS011;1474;51.460;7.150;2023-04-06T02:49:41;6.13;;;3.75;;
2928;SDS011;1474;51.460;7.150;2023-04-06T02:52:07;7.72;;;5.32;;
2928;SDS011;1474;51.460;7.150;2023-04-06T02:54:33;9.60;;;5.35;;
2928;SDS011;1474;51.460;7.150;2023-04-06T02:56:58;8.13;;;5.07;;
2928;SDS011;1474;51.460;7.150;2023-04-06T02:59:24;7.35;;;3.88;;
2928;SDS011;1474;51.460;7.150;2023-04-06T03:01:50;8.25;;;4.55;;
2928;SDS011;1474;51.460;7.150;2023-04-06T03:04:16;5.72;;;3.70;;
2928;SDS011;1474;51.460;7.150;2023-04-06T03:06:42;5.97;;;4.07;;
2928;SDS011;1474;51.460;7.150;2023-04-06T03:09:07;6.63;;;4.60;;
2928;SDS011;1474;51.460;7.150;2023-04-06T03:11:33;6.07;;;4.00;;
2928;SDS011;1474;51.460;7.150;2023-04-06T03:13:59;5.38;;;3.92;;
2928;SDS011;1474;51.460;7.150;2023-04-06T03:16:25;6.47;;;4.47;;
2928;SDS011;1474;51.460;7.150;2023-04-06T03:18:50;6.60;;;4.60;;
2928;SDS011;1474;51.460;7.150;2023-04-06T03:21:16;5.95;;;4.18;;
2928;SDS011;1474;51.460;7.150;2023-04-06T03:23:42;5.68;;;3.50;;
2928;SDS011;1474;51.460;7.150;2023-04-06T03:26:08;4.32;;;3.33;;
2928;SDS011;1474;51.460;7.150;2023-04-06T03:28:33;4.85;;;3.80;;
2928;SDS011;1474;51.460;7.150;2023-04-06T03:30:59;5.35;;;4.50;;
2928;SDS011;1474;51.460;7.150;2023-04-06T03:33:25;8.07;;;4.07;;
2928;SDS011;1474;51.460;7.150;2023-04-06T03:35:53;6.32;;;3.65;;
2928;SDS011;1474;51.460;7.150;2023-04-06T03:38:19;7.72;;;4.55;;
2928;SDS011;1474;51.460;7.150;2023-04-06T03:40:45;5.20;;;4.20;;
2928;SDS011;1474;51.460;7.150;2023-04-06T03:43:11;5.38;;;4.32;;
2928;SDS011;1474;51.460;7.150;2023-04-06T03:45:37;5.78;;;4.68;;
2928;SDS011;1474;51.460;7.150;2023-04-06T03:48:03;5.38;;;4.65;;
2928;SDS011;1474;51.460;7.150;2023-04-06T03:50:28;4.90;;;3.45;;
2928;SDS011;1474;51.460;7.150;2023-04-06T03:52:54;8.93;;;3.78;;
2928;SDS011;1474;51.460;7.150;2023-04-06T03:55:20;5.38;;;3.78;;
2928;SDS011;1474;51.460;7.150;2023-04-06T03:57:46;6.55;;;4.45;;
2928;SDS011;1474;51.460;7.150;2023-04-06T04:00:12;4.47;;;3.92;;
2928;SDS011;1474;51.460;7.150;2023-04-06T04:02:38;4.93;;;4.25;;
2928;SDS011;1474;51.460;7.150;2023-04-06T04:05:04;7.10;;;3.40;;
2928;SDS011;1474;51.460;7.150;2023-04-06T04:07:30;6.45;;;3.95;;
2928;SDS011;1474;51.460;7.150;2023-04-06T04:09:56;6.78;;;4.07;;
2928;SDS011;1474;51.460;7.150;2023-04-06T04:12:22;6.22;;;3.65;;
2928;SDS011;1474;51.460;7.150;2023-04-06T04:14:47;6.40;;;4.10;;
2928;SDS011;1474;51.460;7.150;2023-04-06T04:17:13;5.40;;;3.53;;
2928;SDS011;1474;51.460;7.150;2023-04-06T04:19:39;4.03;;;3.25;;
2928;SDS011;1474;51.460;7.150;2023-04-06T04:22:05;5.00;;;3.92;;
2928;SDS011;1474;51.460;7.150;2023-04-06T04:24:31;7.78;;;3.63;;
2928;SDS011;1474;51.460;7.150;2023-04-06T04:26:57;3.95;;;3.38;;
2928;SDS011;1474;51.460;7.150;2023-04-06T04:29:23;7.18;;;3.67;;
2928;SDS011;1474;51.460;7.150;2023-04-06T04:31:49;5.00;;;3.72;;
2928;SDS011;1474;51.460;7.150;2023-04-06T04:34:16;9.13;;;4.53;;
2928;SDS011;1474;51.460;7.150;2023-04-06T04:36:41;5.13;;;3.42;;
2928;SDS011;1474;51.460;7.150;2023-04-06T04:39:07;4.90;;;2.90;;
2928;SDS011;1474;51.460;7.150;2023-04-06T04:41:33;7.35;;;4.38;;
2928;SDS011;1474;51.460;7.150;2023-04-06T04:43:59;5.63;;;3.58;;
2928;SDS011;1474;51.460;7.150;2023-04-06T04:46:25;7.10;;;3.83;;
2928;SDS011;1474;51.460;7.150;2023-04-06T04:48:53;4.05;;;3.58;;
2928;SDS011;1474;51.460;7.150;2023-04-06T04:51:18;4.68;;;3.47;;
2928;SDS011;1474;51.460;7.150;2023-04-06T04:53:47;5.57;;;3.35;;
2928;SDS011;1474;51.460;7.150;2023-04-06T04:56:13;3.53;;;3.20;;
2928;SDS011;1474;51.460;7.150;2023-04-06T04:58:38;4.85;;;3.22;;
2928;SDS011;1474;51.460;7.150;2023-04-06T05:01:04;4.75;;;4.18;;
2928;SDS011;1474;51.460;7.150;2023-04-06T05:03:30;3.60;;;3.28;;
2928;SDS011;1474;51.460;7.150;2023-04-06T05:05:57;4.30;;;3.30;;
2928;SDS011;1474;51.460;7.150;2023-04-06T05:08:23;4.80;;;3.38;;
2928;SDS011;1474;51.460;7.150;2023-04-06T05:10:48;4.07;;;3.38;;
2928;SDS011;1474;51.460;7.150;2023-04-06T05:13:14;6.45;;;3.75;;
2928;SDS011;1474;51.460;7.150;2023-04-06T05:15:40;6.00;;;3.70;;
2928;SDS011;1474;51.460;7.150;2023-04-06T05:18:06;7.15;;;3.35;;
2928;SDS011;1474;51.460;7.150;2023-04-06T05:20:33;7.28;;;3.47;;
2928;SDS011;1474;51.460;7.150;2023-04-06T05:23:00;4.45;;;3.35;;
2928;SDS011;1474;51.460;7.150;2023-04-06T05:25:25;4.43;;;3.60;;
2928;SDS011;1474;51.460;7.150;2023-04-06T05:27:52;5.50;;;3.30;;
2928;SDS011;1474;51.460;7.150;2023-04-06T05:30:18;6.45;;;4.28;;
2928;SDS011;1474;51.460;7.150;2023-04-06T05:32:43;3.92;;;2.88;;
2928;SDS011;1474;51.460;7.150;2023-04-06T05:35:09;5.10;;;4.15;;
2928;SDS011;1474;51.460;7.150;2023-04-06T05:37:36;4.32;;;3.55;;
2928;SDS011;1474;51.460;7.150;2023-04-06T05:40:02;4.95;;;3.63;;
2928;SDS011;1474;51.460;7.150;2023-04-06T05:42:35;4.57;;;3.85;;
2928;SDS011;1474;51.460;7.150;2023-04-06T05:45:05;5.88;;;3.38;;
2928;SDS011;1474;51.460;7.150;2023-04-06T05:47:31;7.05;;;3.47;;
2928;SDS011;1474;51.460;7.150;2023-04-06T05:49:57;3.72;;;3.17;;
2928;SDS011;1474;51.460;7.150;2023-04-06T05:52:22;4.82;;;3.55;;
2928;SDS011;1474;51.460;7.150;2023-04-06T05:54:48;5.60;;;3.83;;
2928;SDS011;1474;51.460;7.150;2023-04-06T05:57:14;4.82;;;3.65;;
2928;SDS011;1474;51.460;7.150;2023-04-06T05:59:41;7.78;;;4.10;;
2928;SDS011;1474;51.460;7.150;2023-04-06T06:02:07;5.68;;;3.67;;
2928;SDS011;1474;51.460;7.150;2023-04-06T06:04:33;5.82;;;3.80;;
2928;SDS011;1474;51.460;7.150;2023-04-06T06:07:01;6.50;;;4.10;;
2928;SDS011;1474;51.460;7.150;2023-04-06T06:09:27;5.60;;;3.30;;
2928;SDS011;1474;51.460;7.150;2023-04-06T06:11:53;4.63;;;3.03;;
2928;SDS011;1474;51.460;7.150;2023-04-06T06:14:19;3.90;;;3.40;;
2928;SDS011;1474;51.460;7.150;2023-04-06T06:16:45;5.05;;;2.85;;
2928;SDS011;1474;51.460;7.150;2023-04-06T06:19:10;8.20;;;3.67;;
2928;SDS011;1474;51.460;7.150;2023-04-06T06:21:36;4.97;;;3.05;;
2928;SDS011;1474;51.460;7.150;2023-04-06T06:24:02;4.45;;;3.45;;
2928;SDS011;1474;51.460;7.150;2023-04-06T06:26:28;4.05;;;3.58;;
2928;SDS011;1474;51.460;7.150;2023-04-06T06:28:54;5.45;;;3.53;;
2928;SDS011;1474;51.460;7.150;2023-04-06T06:31:20;5.55;;;3.33;;
2928;SDS011;1474;51.460;7.150;2023-04-06T06:33:47;6.22;;;4.22;;
2928;SDS011;1474;51.460;7.150;2023-04-06T06:36:16;9.27;;;4.80;;
2928;SDS011;1474;51.460;7.150;2023-04-06T06:38:42;5.78;;;3.50;;
2928;SDS011;1474;51.460;7.150;2023-04-06T06:41:09;6.85;;;4.00;;
2928;SDS011;1474;51.460;7.150;2023-04-06T06:43:34;4.78;;;3.50;;
2928;SDS011;1474;51.460;7.150;2023-04-06T06:46:00;7.60;;;4.50;;
2928;SDS011;1474;51.460;7.150;2023-04-06T06:48:26;5.97;;;3.72;;
2928;SDS011;1474;51.460;7.150;2023-04-06T06:50:52;4.22;;;3.50;;
2928;SDS011;1474;51.460;7.150;2023-04-06T06:53:18;6.35;;;3.80;;
2928;SDS011;1474;51.460;7.150;2023-04-06T06:55:44;5.90;;;4.18;;
2928;SDS011;1474;51.460;7.150;2023-04-06T06:58:10;6.80;;;4.43;;
2928;SDS011;1474;51.460;7.150;2023-04-06T07:00:35;4.60;;;4.00;;
2928;SDS011;1474;51.460;7.150;2023-04-06T07:03:01;5.30;;;4.20;;
2928;SDS011;1474;51.460;7.150;2023-04-06T07:05:27;7.80;;;4.10;;
2928;SDS011;1474;51.460;7.150;2023-04-06T07:07:53;6.32;;;4.15;;
2928;SDS011;1474;51.460;7.150;2023-04-06T07:10:19;7.10;;;4.22;;
2928;SDS011;1474;51.460;7.150;2023-04-06T07:12:45;8.52;;;4.72;;
2928;SDS011;1474;51.460;7.150;2023-04-06T07:15:11;5.22;;;3.90;;
2928;SDS011;1474;51.460;7.150;2023-04-06T07:17:37;7.50;;;4.55;;
2928;SDS011;1474;51.460;7.150;2023-04-06T07:20:03;6.25;;;4.38;;
2928;SDS011;1474;51.460;7.150;2023-04-06T07:22:29;6.93;;;4.28;;
2928;SDS011;1474;51.460;7.150;2023-04-06T07:24:55;5.85;;;3.80;;
2928;SDS011;1474;51.460;7.150;2023-04-06T07:27:21;7.38;;;4.18;;
2928;SDS011;1474;51.460;7.150;2023-04-06T07:29:46;5.93;;;3.58;;
2928;SDS011;1474;51.460;7.150;2023-04-06T07:32:12;5.18;;;4.13;;
2928;SDS011;1474;51.460;7.150;2023-04-06T07:34:38;4.85;;;3.50;;
2928;SDS011;1474;51.460;7.150;2023-04-06T07:37:03;5.60;;;3.92;;
2928;SDS011;1474;51.460;7.150;2023-04-06T07:39:29;5.05;;;4.55;;
2928;SDS011;1474;51.460;7.150;2023-04-06T07:41:55;6.15;;;4.13;;
2928;SDS011;1474;51.460;7.150;2023-04-06T07:44:20;5.07;;;3.50;;
2928;SDS011;1474;51.460;7.150;2023-04-06T07:46:46;6.18;;;4.40;;
2928;SDS011;1474;51.460;7.150;2023-04-06T07:49:12;7.20;;;3.67;;
2928;SDS011;1474;51.460;7.150;2023-04-06T07:51:38;6.35;;;4.10;;
2928;SDS011;1474;51.460;7.150;2023-04-06T07:54:04;7.68;;;4.70;;
2928;SDS011;1474;51.460;7.150;2023-04-06T07:56:30;6.85;;;4.53;;
2928;SDS011;1474;51.460;7.150;2023-04-06T07:58:56;7.80;;;4.00;;
2928;SDS011;1474;51.460;7.150;2023-04-06T08:01:23;5.15;;;4.35;;
2928;SDS011;1474;51.460;7.150;2023-04-06T08:03:49;6.45;;;4.47;;
2928;SDS011;1474;51.460;7.150;2023-04-06T08:06:15;5.32;;;3.47;;
2928;SDS011;1474;51.460;7.150;2023-04-06T08:08:42;5.78;;;3.97;;
2928;SDS011;1474;51.460;7.150;2023-04-06T08:11:08;5.72;;;4.32;;
2928;SDS011;1474;51.460;7.150;2023-04-06T08:13:34;5.32;;;3.90;;
2928;SDS011;1474;51.460;7.150;2023-04-06T08:16:00;6.53;;;4.47;;
2928;SDS011;1474;51.460;7.150;2023-04-06T08:18:27;6.45;;;4.65;;
2928;SDS011;1474;51.460;7.150;2023-04-06T08:20:54;7.47;;;4.32;;
2928;SDS011;1474;51.460;7.150;2023-04-06T08:23:20;6.55;;;4.78;;
2928;SDS011;1474;51.460;7.150;2023-04-06T08:25:46;5.53;;;4.63;;
2928;SDS011;1474;51.460;7.150;2023-04-06T08:28:11;6.32;;;4.65;;
2928;SDS011;1474;51.460;7.150;2023-04-06T08:30:40;8.00;;;4.75;;
2928;SDS011;1474;51.460;7.150;2023-04-06T08:33:07;6.33;;;4.83;;
2928;SDS011;1474;51.460;7.150;2023-04-06T08:35:33;7.25;;;4.93;;
2928;SDS011;1474;51.460;7.150;2023-04-06T08:37:58;8.27;;;4.78;;
2928;SDS011;1474;51.460;7.150;2023-04-06T08:40:24;7.47;;;4.88;;
2928;SDS011;1474;51.460;7.150;2023-04-06T08:42:52;10.05;;;5.70;;
2928;SDS011;1474;51.460;7.150;2023-04-06T08:45:20;7.88;;;4.90;;
2928;SDS011;1474;51.460;7.150;2023-04-06T08:47:48;9.95;;;5.05;;
2928;SDS011;1474;51.460;7.150;2023-04-06T08:50:18;11.18;;;5.05;;
2928;SDS011;1474;51.460;7.150;2023-04-06T08:52:46;7.43;;;5.05;;
2928;SDS011;1474;51.460;7.150;2023-04-06T08:55:13;6.88;;;4.55;;
2928;SDS011;1474;51.460;7.150;2023-04-06T08:57:39;11.90;;;5.93;;
2928;SDS011;1474;51.460;7.150;2023-04-06T09:00:06;8.38;;;5.28;;
2928;SDS011;1474;51.460;7.150;2023-04-06T09:02:36;8.95;;;5.43;;
2928;SDS011;1474;51.460;7.150;2023-04-06T09:05:04;8.70;;;5.47;;
2928;SDS011;1474;51.460;7.150;2023-04-06T09:07:30;9.50;;;6.00;;
2928;SDS011;1474;51.460;7.150;2023-04-06T09:09:56;11.13;;;6.00;;
2928;SDS011;1474;51.460;7.150;2023-04-06T09:12:25;10.48;;;6.22;;
2928;SDS011;1474;51.460;7.150;2023-04-06T09:14:52;8.48;;;5.03;;
2928;SDS011;1474;51.460;7.150;2023-04-06T09:17:25;10.95;;;5.88;;
2928;SDS011;1474;51.460;7.150;2023-04-06T09:19:52;12.07;;;5.40;;
2928;SDS011;1474;51.460;7.150;2023-04-06T09:22:19;11.23;;;6.00;;
2928;SDS011;1474;51.460;7.150;2023-04-06T09:24:49;9.65;;;5.68;;
2928;SDS011;1474;51.460;7.150;2023-04-06T09:27:15;12.30;;;5.97;;
2928;SDS011;1474;51.460;7.150;2023-04-06T09:29:43;10.48;;;5.50;;
2928;SDS011;1474;51.460;7.150;2023-04-06T09:32:09;7.68;;;5.32;;
2928;SDS011;1474;51.460;7.150;2023-04-06T09:34:39;12.10;;;5.65;;
2928;SDS011;1474;51.460;7.150;2023-04-06T09:37:17;10.00;;;5.88;;
2928;SDS011;1474;51.460;7.150;2023-04-06T09:39:44;8.40;;;5.05;;
2928;SDS011;1474;51.460;7.150;2023-04-06T09:42:31;9.95;;;5.50;;
2928;SDS011;1474;51.460;7.150;2023-04-06T09:44:56;11.00;;;6.20;;
2928;SDS011;1474;51.460;7.150;2023-04-06T09:47:22;10.48;;;5.57;;
2928;SDS011;1474;51.460;7.150;2023-04-06T09:49:49;10.82;;;6.22;;
2928;SDS011;1474;51.460;7.150;2023-04-06T09:52:20;9.45;;;6.60;;
2928;SDS011;1474;51.460;7.150;2023-04-06T09:54:49;11.27;;;6.95;;
2928;SDS011;1474;51.460;7.150;2023-04-06T10:05:20;10.15;;;6.05;;
2928;SDS011;1474;51.460;7.150;2023-04-06T10:07:50;9.93;;;7.00;;
2928;SDS011;1474;51.460;7.150;2023-04-06T10:10:21;14.60;;;7.70;;
2928;SDS011;1474;51.460;7.150;2023-04-06T10:12:47;11.65;;;6.47;;
2928;SDS011;1474;51.460;7.150;2023-04-06T10:15:13;12.60;;;7.15;;
2928;SDS011;1474;51.460;7.150;2023-04-06T10:17:40;10.95;;;7.07;;
2928;SDS011;1474;51.460;7.150;2023-04-06T10:20:10;15.82;;;7.35;;
2928;SDS011;1474;51.460;7.150;2023-04-06T10:22:43;12.00;;;6.82;;
2928;SDS011;1474;51.460;7.150;2023-04-06T10:25:31;14.65;;;7.22;;
2928;SDS011;1474;51.460;7.150;2023-04-06T10:30:34;11.35;;;7.25;;
2928;SDS011;1474;51.460;7.150;2023-04-06T10:33:19;11.50;;;8.13;;
2928;SDS011;1474;51.460;7.150;2023-04-06T10:35:45;11.32;;;6.88;;
2928;SDS011;1474;51.460;7.150;2023-04-06T10:38:11;13.82;;;8.82;;
2928;SDS011;1474;51.460;7.150;2023-04-06T10:40:39;12.82;;;7.45;;
2928;SDS011;1474;51.460;7.150;2023-04-06T10:43:08;13.32;;;7.70;;
2928;SDS011;1474;51.460;7.150;2023-04-06T10:45:36;15.02;;;7.97;;
2928;SDS011;1474;51.460;7.150;2023-04-06T10:48:15;12.95;;;7.85;;
2928;SDS011;1474;51.460;7.150;2023-04-06T10:50:49;11.13;;;6.97;;
2928;SDS011;1474;51.460;7.150;2023-04-06T10:53:25;11.93;;;8.05;;
2928;SDS011;1474;51.460;7.150;2023-04-06T10:55:53;13.32;;;8.73;;
2928;SDS011;1474;51.460;7.150;2023-04-06T10:58:23;13.52;;;9.88;;
2928;SDS011;1474;51.460;7.150;2023-04-06T11:00:50;15.70;;;9.98;;
2928;SDS011;1474;51.460;7.150;2023-04-06T11:03:16;13.05;;;8.52;;
2928;SDS011;1474;51.460;7.150;2023-04-06T11:05:46;13.55;;;9.93;;
2928;SDS011;1474;51.460;7.150;2023-04-06T11:11:08;13.10;;;8.80;;
2928;SDS011;1474;51.460;7.150;2023-04-06T11:13:41;15.60;;;9.75;;
2928;SDS011;1474;51.460;7.150;2023-04-06T11:16:07;15.10;;;10.18;;
2928;SDS011;1474;51.460;7.150;2023-04-06T11:18:37;16.95;;;9.63;;
2928;SDS011;1474;51.460;7.150;2023-04-06T11:21:03;15.18;;;9.15;;
2928;SDS011;1474;51.460;7.150;2023-04-06T11:23:29;14.55;;;9.27;;
2928;SDS011;1474;51.460;7.150;2023-04-06T11:25:54;17.30;;;10.40;;
2928;SDS011;1474;51.460;7.150;2023-04-06T11:28:20;18.67;;;10.60;;
2928;SDS011;1474;51.460;7.150;2023-04-06T11:30:46;15.88;;;11.00;;
2928;SDS011;1474;51.460;7.150;2023-04-06T11:33:19;17.65;;;9.95;;
2928;SDS011;1474;51.460;7.150;2023-04-06T11:35:46;18.98;;;10.45;;
2928;SDS011;1474;51.460;7.150;2023-04-06T11:38:12;16.58;;;10.10;;
2928;SDS011;1474;51.460;7.150;2023-04-06T11:40:38;15.07;;;9.23;;
2928;SDS011;1474;51.460;7.150;2023-04-06T11:43:03;15.20;;;9.27;;
2928;SDS011;1474;51.460;7.150;2023-04-06T11:45:38;16.77;;;7.40;;
2928;SDS011;1474;51.460;7.150;2023-04-06T11:48:17;13.10;;;8.40;;
2928;SDS011;1474;51.460;7.150;2023-04-06T11:50:45;18.77;;;8.30;;
2928;SDS011;1474;51.460;7.150;2023-04-06T11:53:12;16.60;;;8.05;;
2928;SDS011;1474;51.460;7.150;2023-04-06T11:55:38;13.55;;;8.25;;
2928;SDS011;1474;51.460;7.150;2023-04-06T11:58:04;12.45;;;7.43;;
2928;SDS011;1474;51.460;7.150;2023-04-06T12:00:29;10.52;;;6.70;;
2928;SDS011;1474;51.460;7.150;2023-04-06T12:02:59;15.70;;;8.57;;
2928;SDS011;1474;51.460;7.150;2023-04-06T12:05:25;10.32;;;6.85;;
2928;SDS011;1474;51.460;7.150;2023-04-06T12:07:51;11.95;;;7.25;;
2928;SDS011;1474;51.460;7.150;2023-04-06T12:10:17;13.18;;;7.43;;
2928;SDS011;1474;51.460;7.150;2023-04-06T12:12:43;11.70;;;6.88;;
2928;SDS011;1474;51.460;7.150;2023-04-06T12:15:09;13.10;;;7.00;;
2928;SDS011;1474;51.460;7.150;2023-04-06T12:17:35;14.30;;;7.13;;
2928;SDS011;1474;51.460;7.150;2023-04-06T12:20:01;12.70;;;7.45;;
2928;SDS011;1474;51.460;7.150;2023-04-06T12:22:27;10.80;;;6.55;;
2928;SDS011;1474;51.460;7.150;2023-04-06T12:24:53;13.80;;;7.13;;
2928;SDS011;1474;51.460;7.150;2023-04-06T12:27:19;13.80;;;8.38;;
2928;SDS011;1474;51.460;7.150;2023-04-06T12:29:45;13.63;;;7.72;;
2928;SDS011;1474;51.460;7.150;2023-04-06T12:32:11;13.27;;;6.43;;
2928;SDS011;1474;51.460;7.150;2023-04-06T12:34:37;14.02;;;7.22;;
2928;SDS011;1474;51.460;7.150;2023-04-06T12:37:03;12.07;;;6.47;;
2928;SDS011;1474;51.460;7.150;2023-04-06T12:39:29;14.35;;;8.00;;
2928;SDS011;1474;51.460;7.150;2023-04-06T12:41:55;12.25;;;6.43;;
2928;SDS011;1474;51.460;7.150;2023-04-06T12:44:22;11.82;;;7.00;;
2928;SDS011;1474;51.460;7.150;2023-04-06T12:46:48;11.45;;;7.43;;
2928;SDS011;1474;51.460;7.150;2023-04-06T12:49:13;16.20;;;8.07;;
2928;SDS011;1474;51.460;7.150;2023-04-06T12:51:41;13.15;;;7.15;;
2928;SDS011;1474;51.460;7.150;2023-04-06T12:54:07;16.05;;;8.45;;
2928;SDS011;1474;51.460;7.150;2023-04-06T12:56:33;16.05;;;8.20;;
2928;SDS011;1474;51.460;7.150;2023-04-06T12:58:58;14.95;;;7.63;;
2928;SDS011;1474;51.460;7.150;2023-04-06T13:01:24;10.95;;;7.60;;
2928;SDS011;1474;51.460;7.150;2023-04-06T13:03:51;11.93;;;7.35;;
2928;SDS011;1474;51.460;7.150;2023-04-06T13:06:17;11.05;;;6.85;;
2928;SDS011;1474;51.460;7.150;2023-04-06T13:08:42;12.65;;;7.50;;
2928;SDS011;1474;51.460;7.150;2023-04-06T13:11:08;14.73;;;7.43;;
2928;SDS011;1474;51.460;7.150;2023-04-06T13:13:34;14.90;;;8.27;;
2928;SDS011;1474;51.460;7.150;2023-04-06T13:16:01;12.68;;;7.53;;
2928;SDS011;1474;51.460;7.150;2023-04-06T13:18:30;12.75;;;7.57;;
2928;SDS011;1474;51.460;7.150;2023-04-06T13:20:57;14.07;;;7.70;;
2928;SDS011;1474;51.460;7.150;2023-04-06T13:23:24;13.40;;;8.10;;
2928;SDS011;1474;51.460;7.150;2023-04-06T13:26:00;15.75;;;8.02;;
2928;SDS011;1474;51.460;7.150;2023-04-06T13:28:28;14.95;;;8.10;;
2928;SDS011;1474;51.460;7.150;2023-04-06T13:30:54;13.13;;;7.40;;
2928;SDS011;1474;51.460;7.150;2023-04-06T13:33:20;12.23;;;6.85;;
2928;SDS011;1474;51.460;7.150;2023-04-06T13:35:46;12.50;;;7.28;;
2928;SDS011;1474;51.460;7.150;2023-04-06T13:38:12;12.05;;;7.38;;
2928;SDS011;1474;51.460;7.150;2023-04-06T13:40:39;13.65;;;7.85;;
2928;SDS011;1474;51.460;7.150;2023-04-06T13:43:05;11.70;;;7.38;;
2928;SDS011;1474;51.460;7.150;2023-04-06T13:45:31;13.02;;;7.13;;
2928;SDS011;1474;51.460;7.150;2023-04-06T13:47:57;10.10;;;6.95;;
2928;SDS011;1474;51.460;7.150;2023-04-06T13:50:25;12.73;;;7.35;;
2928;SDS011;1474;51.460;7.150;2023-04-06T13:52:51;12.60;;;8.20;;
2928;SDS011;1474;51.460;7.150;2023-04-06T13:55:17;11.85;;;7.88;;
2928;SDS011;1474;51.460;7.150;2023-04-06T13:57:42;14.20;;;7.93;;
2928;SDS011;1474;51.460;7.150;2023-04-06T14:00:08;10.25;;;6.05;;
2928;SDS011;1474;51.460;7.150;2023-04-06T14:02:36;14.07;;;7.18;;
2928;SDS011;1474;51.460;7.150;2023-04-06T14:05:02;15.38;;;8.00;;
2928;SDS011;1474;51.460;7.150;2023-04-06T14:07:28;11.25;;;6.18;;
2928;SDS011;1474;51.460;7.150;2023-04-06T14:09:54;11.80;;;6.45;;
2928;SDS011;1474;51.460;7.150;2023-04-06T14:12:20;11.80;;;6.10;;
2928;SDS011;1474;51.460;7.150;2023-04-06T14:14:45;10.25;;;6.80;;
2928;SDS011;1474;51.460;7.150;2023-04-06T14:17:11;12.65;;;6.60;;
2928;SDS011;1474;51.460;7.150;2023-04-06T14:19:36;10.40;;;6.85;;
2928;SDS011;1474;51.460;7.150;2023-04-06T14:22:02;10.27;;;7.53;;
2928;SDS011;1474;51.460;7.150;2023-04-06T14:24:29;9.48;;;6.32;;
2928;SDS011;1474;51.460;7.150;2023-04-06T14:26:55;11.85;;;6.60;;
2928;SDS011;1474;51.460;7.150;2023-04-06T14:29:21;14.40;;;6.50;;
2928;SDS011;1474;51.460;7.150;2023-04-06T14:31:47;9.30;;;5.78;;
2928;SDS011;1474;51.460;7.150;2023-04-06T14:34:13;11.60;;;6.85;;
2928;SDS011;1474;51.460;7.150;2023-04-06T14:36:40;12.20;;;6.40;;
2928;SDS011;1474;51.460;7.150;2023-04-06T14:39:06;13.70;;;6.65;;
2928;SDS011;1474;51.460;7.150;2023-04-06T14:41:32;10.30;;;6.22;;
2928;SDS011;1474;51.460;7.150;2023-04-06T14:43:59;12.95;;;7.18;;
2928;SDS011;1474;51.460;7.150;2023-04-06T14:46:26;14.23;;;6.65;;
2928;SDS011;1474;51.460;7.150;2023-04-06T14:48:55;9.35;;;6.38;;
2928;SDS011;1474;51.460;7.150;2023-04-06T14:51:25;7.95;;;6.22;;
2928;SDS011;1474;51.460;7.150;2023-04-06T14:53:54;8.73;;;5.93;;
2928;SDS011;1474;51.460;7.150;2023-04-06T14:56:23;9.98;;;6.15;;
2928;SDS011;1474;51.460;7.150;2023-04-06T14:58:49;9.95;;;5.30;;
2928;SDS011;1474;51.460;7.150;2023-04-06T15:01:16;7.43;;;5.03;;
2928;SDS011;1474;51.460;7.150;2023-04-06T15:03:43;7.00;;;4.72;;
2928;SDS011;1474;51.460;7.150;2023-04-06T15:06:11;6.20;;;4.75;;
2928;SDS011;1474;51.460;7.150;2023-04-06T15:08:44;9.00;;;4.68;;
2928;SDS011;1474;51.460;7.150;2023-04-06T15:11:10;10.68;;;6.13;;
2928;SDS011;1474;51.460;7.150;2023-04-06T15:13:37;5.82;;;4.57;;
2928;SDS011;1474;51.460;7.150;2023-04-06T15:16:05;8.88;;;5.22;;
2928;SDS011;1474;51.460;7.150;2023-04-06T15:18:31;8.82;;;5.38;;
2928;SDS011;1474;51.460;7.150;2023-04-06T15:20:57;8.52;;;4.72;;